Time;durP1;ratioP1;P1;durP2;ratioP2;P2;SDS_P1;SDS_P2;PMS_P1;PMS_P2;Temp;Humidity;BMP_temperature;BMP_pressure;BME280_temperature;BME280_humidity;BME280_pressure;Samples;Min_cycle;Max_cycle;Signal;HPM_P1;HPM_P2
2023/04/18 00:00:41;;;;;;;9.47;9.17;;;7.20;99.90;;;;;;5028571;28;20299;-79
2023/04/18 00:03:09;;;;;;;9.57;9.27;;;7.20;99.90;;;;;;5031167;28;20315;-79
2023/04/18 00:05:39;;;;;;;9.43;9.13;;;7.20;99.90;;;;;;5030963;28;20226;-80
2023/04/18 00:08:06;;;;;;;9.80;9.50;;;7.20;99.90;;;;;;5036687;28;20239;-79
2023/04/18 00:10:33;;;;;;;9.50;9.20;;;7.20;99.90;;;;;;5038328;28;20251;-79
2023/04/18 00:13:01;;;;;;;9.50;9.20;;;7.10;99.90;;;;;;5039768;28;20228;-79
2023/04/18 00:15:29;;;;;;;9.27;8.97;;;7.20;99.90;;;;;;5038750;28;20279;-79
2023/04/18 00:17:56;;;;;;;9.30;9.00;;;7.10;99.90;;;;;;5038453;28;20228;-79
2023/04/18 00:20:25;;;;;;;9.37;9.07;;;7.10;99.90;;;;;;5039162;28;20230;-79
2023/04/18 00:22:54;;;;;;;9.40;9.10;;;7.10;99.90;;;;;;5039732;28;20217;-79
2023/04/18 00:25:22;;;;;;;9.20;8.90;;;7.10;99.90;;;;;;5038446;28;20266;-79
2023/04/18 00:27:49;;;;;;;9.27;8.97;;;7.10;99.90;;;;;;5039162;28;20297;-79
2023/04/18 00:30:17;;;;;;;9.50;9.20;;;7.10;99.90;;;;;;5039696;28;20255;-79
2023/04/18 00:32:44;;;;;;;9.53;9.23;;;7.10;99.90;;;;;;5038919;28;20288;-79
2023/04/18 00:35:12;;;;;;;9.70;9.40;;;7.10;99.90;;;;;;5038566;28;20234;-79
2023/04/18 00:37:39;;;;;;;9.63;9.33;;;7.10;99.90;;;;;;5035245;28;20284;-79
2023/04/18 00:40:10;;;;;;;9.90;9.60;;;7.10;99.90;;;;;;5033746;28;20255;-79
2023/04/18 00:42:37;;;;;;;9.80;9.50;;;7.10;99.90;;;;;;5038849;28;20280;-79
2023/04/18 00:45:07;;;;;;;9.70;9.40;;;7.10;99.90;;;;;;5034500;28;20310;-79
2023/04/18 00:47:34;;;;;;;9.43;9.13;;;7.10;99.90;;;;;;5036508;28;20236;-79
2023/04/18 00:50:02;;;;;;;9.50;9.20;;;7.00;99.90;;;;;;5032379;28;20240;-79
2023/04/18 00:52:30;;;;;;;9.70;9.40;;;7.00;99.90;;;;;;5036411;28;20224;-79
2023/04/18 00:54:58;;;;;;;9.40;9.10;;;7.00;99.90;;;;;;5035161;28;20236;-81
2023/04/18 00:57:27;;;;;;;9.83;9.53;;;7.00;99.90;;;;;;5033452;28;20243;-79
2023/04/18 00:59:55;;;;;;;9.33;9.03;;;7.00;99.90;;;;;;5025355;28;20244;-79
2023/04/18 01:02:24;;;;;;;9.40;9.10;;;7.00;99.90;;;;;;5023333;28;20370;-79
2023/04/18 01:04:52;;;;;;;9.40;9.10;;;6.90;99.90;;;;;;5025887;28;20236;-79
2023/04/18 01:07:20;;;;;;;9.57;9.27;;;6.90;99.90;;;;;;5023284;28;20232;-79
2023/04/18 01:09:48;;;;;;;9.37;9.07;;;6.90;99.90;;;;;;5021871;28;20236;-79
2023/04/18 01:12:15;;;;;;;9.80;9.50;;;6.90;99.90;;;;;;5022990;28;20243;-79
2023/04/18 01:14:44;;;;;;;9.80;9.50;;;6.90;99.90;;;;;;5024262;28;20224;-79
2023/04/18 01:17:12;;;;;;;9.60;9.30;;;6.80;99.90;;;;;;5023502;28;20260;-79
2023/04/18 01:19:39;;;;;;;9.70;9.40;;;6.80;99.90;;;;;;5023196;28;20246;-79
2023/04/18 01:22:07;;;;;;;9.33;9.03;;;6.80;99.90;;;;;;5023081;28;20235;-79
2023/04/18 01:24:36;;;;;;;9.57;9.27;;;6.70;99.90;;;;;;5022080;28;20252;-79
2023/04/18 01:27:04;;;;;;;9.67;9.37;;;6.70;99.90;;;;;;5021935;28;20232;-79
2023/04/18 01:29:32;;;;;;;9.60;9.30;;;6.70;99.90;;;;;;5021916;28;20255;-79
2023/04/18 01:32:01;;;;;;;9.40;9.10;;;6.70;99.90;;;;;;5021401;28;20232;-79
2023/04/18 01:34:28;;;;;;;9.30;9.00;;;6.70;99.90;;;;;;5021580;28;20221;-79
2023/04/18 01:36:56;;;;;;;9.30;9.00;;;6.70;99.90;;;;;;5021582;28;20242;-81
2023/04/18 01:39:23;;;;;;;9.60;9.30;;;6.80;99.90;;;;;;5021236;28;20240;-79
2023/04/18 01:41:52;;;;;;;9.57;9.27;;;6.80;99.90;;;;;;5022823;28;20227;-79
2023/04/18 01:44:20;;;;;;;9.50;9.20;;;6.80;99.90;;;;;;5022193;28;20234;-80
2023/04/18 01:46:47;;;;;;;9.17;8.87;;;6.80;99.90;;;;;;5022539;28;20731;-79
2023/04/18 01:49:16;;;;;;;9.43;9.13;;;6.80;99.90;;;;;;5021302;28;20239;-79
2023/04/18 01:51:43;;;;;;;9.30;9.00;;;6.70;99.90;;;;;;5022975;28;20216;-79
2023/04/18 01:54:10;;;;;;;9.37;9.07;;;6.70;99.90;;;;;;5025463;28;20228;-80
2023/04/18 01:56:38;;;;;;;9.50;9.20;;;6.70;99.90;;;;;;5021970;28;20242;-78
2023/04/18 01:59:07;;;;;;;9.27;8.97;;;6.70;99.90;;;;;;5020738;28;20236;-79
2023/04/18 02:01:34;;;;;;;9.30;9.00;;;6.60;99.90;;;;;;5020980;28;20235;-79
2023/04/18 02:04:02;;;;;;;9.20;8.90;;;6.70;99.90;;;;;;5021439;28;20232;-79
2023/04/18 02:06:29;;;;;;;9.27;8.97;;;6.70;99.90;;;;;;5022188;28;20266;-79
2023/04/18 02:08:57;;;;;;;9.37;9.07;;;6.60;99.90;;;;;;5020826;28;20240;-79
2023/04/18 02:11:24;;;;;;;9.30;9.00;;;6.60;99.90;;;;;;5021165;28;20246;-79
2023/04/18 02:13:53;;;;;;;9.20;8.90;;;6.60;99.90;;;;;;5022305;28;20219;-79
2023/04/18 02:16:21;;;;;;;9.00;8.80;;;6.50;99.90;;;;;;5020222;28;20266;-79
2023/04/18 02:18:51;;;;;;;9.27;8.97;;;6.50;99.90;;;;;;5019931;28;20371;-79
2023/04/18 02:21:18;;;;;;;9.10;8.80;;;6.60;99.90;;;;;;5020845;28;20236;-79
2023/04/18 02:23:46;;;;;;;9.20;8.90;;;6.60;99.90;;;;;;5020000;28;20236;-80
2023/04/18 02:26:13;;;;;;;9.30;9.00;;;6.60;99.90;;;;;;5020380;28;20240;-79
2023/04/18 02:28:40;;;;;;;9.37;9.07;;;6.60;99.90;;;;;;5030583;28;20346;-79
2023/04/18 02:31:13;;;;;;;9.20;8.90;;;6.60;99.90;;;;;;5028177;28;20291;-79
2023/04/18 02:33:42;;;;;;;9.23;8.93;;;6.70;99.90;;;;;;5024092;28;20224;-79
2023/04/18 02:36:10;;;;;;;9.23;8.93;;;6.60;99.90;;;;;;5022324;28;20236;-79
2023/04/18 02:38:37;;;;;;;9.43;9.13;;;6.60;99.90;;;;;;5021733;28;20246;-79
2023/04/18 02:41:05;;;;;;;9.40;9.10;;;6.50;99.90;;;;;;5021872;28;20240;-79
2023/04/18 02:43:34;;;;;;;9.53;9.23;;;6.50;99.90;;;;;;5021619;28;20230;-79
2023/04/18 02:46:01;;;;;;;9.30;9.00;;;6.50;99.90;;;;;;5021709;28;20239;-79
2023/04/18 02:48:29;;;;;;;9.30;9.00;;;6.50;99.90;;;;;;5020040;28;20243;-79
2023/04/18 02:51:03;;;;;;;9.40;9.10;;;6.50;99.90;;;;;;5020945;28;20236;-79
2023/04/18 02:53:31;;;;;;;9.00;8.80;;;6.50;99.90;;;;;;5021064;28;20255;-79
2023/04/18 02:55:59;;;;;;;9.17;8.87;;;6.50;99.90;;;;;;5020843;28;20232;-80
2023/04/18 02:58:26;;;;;;;9.10;8.90;;;6.50;99.90;;;;;;5020213;28;20236;-79
2023/04/18 03:00:55;;;;;;;9.30;9.00;;;6.50;99.90;;;;;;5020799;28;20243;-79
2023/04/18 03:03:23;;;;;;;8.80;8.60;;;6.50;99.90;;;;;;5021865;28;20243;-80
2023/04/18 03:05:50;;;;;;;9.20;8.90;;;6.50;99.90;;;;;;5020519;28;20291;-80
2023/04/18 03:08:19;;;;;;;9.00;8.80;;;6.60;99.90;;;;;;5020457;28;20334;-80
2023/04/18 03:10:47;;;;;;;9.07;8.83;;;6.50;99.90;;;;;;5019730;28;20236;-80
2023/04/18 03:13:17;;;;;;;8.67;8.47;;;6.50;99.90;;;;;;5020212;28;20314;-80
2023/04/18 03:15:44;;;;;;;8.77;8.57;;;6.60;99.90;;;;;;5019841;28;20308;-80
2023/04/18 03:18:12;;;;;;;8.87;8.67;;;6.50;99.90;;;;;;5019808;28;20275;-80
2023/04/18 03:20:39;;;;;;;8.50;8.30;;;6.60;99.90;;;;;;5019289;28;20306;-80
2023/04/18 03:23:07;;;;;;;8.90;8.70;;;6.50;99.90;;;;;;5020006;28;20279;-80
2023/04/18 03:25:36;;;;;;;8.80;8.60;;;6.50;99.90;;;;;;5020182;28;20240;-82
2023/04/18 03:28:04;;;;;;;8.47;8.27;;;6.50;99.90;;;;;;5023381;28;20240;-80
2023/04/18 03:30:31;;;;;;;8.90;8.70;;;6.50;99.90;;;;;;5026443;28;20297;-80
2023/04/18 03:33:01;;;;;;;8.93;8.73;;;6.50;99.90;;;;;;5026011;28;20254;-80
2023/04/18 03:35:28;;;;;;;8.80;8.60;;;6.50;99.90;;;;;;5025713;28;20238;-80
2023/04/18 03:37:56;;;;;;;8.73;8.53;;;6.50;99.90;;;;;;5025502;28;20581;-80
2023/04/18 03:40:23;;;;;;;8.63;8.43;;;6.50;99.90;;;;;;5025979;28;20323;-80
2023/04/18 03:42:52;;;;;;;8.67;8.47;;;6.50;99.90;;;;;;5025554;28;20232;-80
2023/04/18 03:45:20;;;;;;;8.77;8.57;;;6.50;99.90;;;;;;5033186;28;20295;-80
2023/04/18 03:47:47;;;;;;;8.87;8.67;;;6.50;99.90;;;;;;5027478;28;20239;-80
2023/04/18 03:50:15;;;;;;;8.80;8.60;;;6.50;99.90;;;;;;5027277;28;20287;-80
2023/04/18 03:52:42;;;;;;;9.00;8.80;;;6.50;99.90;;;;;;5026198;28;20299;-80
2023/04/18 03:55:10;;;;;;;8.70;8.50;;;6.60;99.90;;;;;;5026027;28;20236;-80
2023/04/18 03:57:37;;;;;;;8.87;8.67;;;6.60;99.90;;;;;;5025565;28;20232;-80
2023/04/18 04:00:09;;;;;;;8.80;8.60;;;6.60;99.90;;;;;;5025436;28;20242;-80
2023/04/18 04:02:36;;;;;;;8.70;8.50;;;6.60;99.90;;;;;;5023341;28;20231;-79
2023/04/18 04:05:04;;;;;;;9.10;8.90;;;6.60;99.90;;;;;;5025815;28;20238;-80
2023/04/18 04:07:32;;;;;;;9.20;8.90;;;6.50;99.90;;;;;;5025437;28;20231;-79
2023/04/18 04:10:00;;;;;;;9.20;8.90;;;6.60;99.90;;;;;;5024503;28;20239;-80
2023/04/18 04:12:27;;;;;;;9.73;9.43;;;6.60;99.90;;;;;;5024729;28;20344;-80
2023/04/18 04:14:55;;;;;;;9.90;9.60;;;6.70;99.90;;;;;;5024464;28;20232;-80
2023/04/18 04:17:24;;;;;;;9.90;9.60;;;6.70;99.90;;;;;;5024509;28;20246;-80
2023/04/18 04:19:51;;;;;;;9.73;9.43;;;6.70;99.90;;;;;;5024436;28;20255;-80
2023/04/18 04:22:19;;;;;;;9.80;9.50;;;6.70;99.90;;;;;;5024494;28;20232;-80
2023/04/18 04:24:46;;;;;;;9.87;9.57;;;6.70;99.90;;;;;;5024544;28;20236;-80
2023/04/18 04:27:14;;;;;;;9.93;9.63;;;6.70;99.90;;;;;;5025162;28;20724;-80
2023/04/18 04:29:42;;;;;;;9.63;9.33;;;6.70;99.90;;;;;;5024531;28;20239;-80
2023/04/18 04:32:11;;;;;;;9.87;9.57;;;6.80;99.90;;;;;;5023588;28;20327;-80
2023/04/18 04:34:41;;;;;;;9.70;9.40;;;6.90;99.90;;;;;;5023961;28;20259;-81
2023/04/18 04:37:08;;;;;;;9.70;9.40;;;6.90;99.90;;;;;;5024579;28;20306;-79
2023/04/18 04:39:36;;;;;;;9.70;9.40;;;6.90;99.90;;;;;;5022392;28;20239;-79
2023/04/18 04:42:04;;;;;;;9.60;9.30;;;6.90;99.90;;;;;;5029839;28;20231;-79
2023/04/18 04:44:32;;;;;;;9.70;9.40;;;6.90;99.90;;;;;;5034464;28;20267;-80
2023/04/18 04:46:59;;;;;;;9.60;9.30;;;7.00;99.90;;;;;;5026510;28;20241;-79
2023/04/18 04:49:27;;;;;;;9.70;9.40;;;7.00;99.90;;;;;;5025222;28;20255;-79
2023/04/18 04:51:55;;;;;;;9.47;9.17;;;7.00;99.90;;;;;;5025337;28;20416;-79
2023/04/18 04:54:23;;;;;;;9.73;9.43;;;7.00;99.90;;;;;;5025045;28;20297;-79
2023/04/18 04:56:50;;;;;;;9.57;9.27;;;7.10;99.90;;;;;;5023992;28;20247;-81
2023/04/18 04:59:18;;;;;;;9.53;9.23;;;7.10;99.90;;;;;;5023115;28;20330;-79
2023/04/18 05:01:46;;;;;;;9.90;9.60;;;7.10;99.90;;;;;;5022850;28;20235;-79
2023/04/18 05:04:13;;;;;;;9.70;9.40;;;7.20;99.90;;;;;;5022855;28;20244;-79
2023/04/18 05:06:41;;;;;;;9.77;9.47;;;7.20;99.90;;;;;;5023291;28;20236;-79
2023/04/18 05:09:10;;;;;;;9.90;9.60;;;7.30;99.90;;;;;;5022544;28;20236;-79
2023/04/18 05:11:37;;;;;;;9.70;9.40;;;7.40;99.90;;;;;;5021905;28;20267;-79
2023/04/18 05:14:04;;;;;;;9.50;9.20;;;7.50;99.90;;;;;;5022350;28;20239;-80
2023/04/18 05:16:32;;;;;;;9.53;9.23;;;7.50;99.90;;;;;;5023128;28;20243;-79
2023/04/18 05:18:59;;;;;;;9.60;9.30;;;7.60;99.90;;;;;;5021788;28;20251;-79
2023/04/18 05:21:27;;;;;;;9.40;9.10;;;7.70;99.90;;;;;;5022215;28;20282;-79
2023/04/18 05:23:55;;;;;;;9.80;9.50;;;7.70;99.90;;;;;;5022756;28;20258;-79
2023/04/18 05:26:24;;;;;;;9.97;9.67;;;7.70;99.90;;;;;;5022434;28;20236;-80
2023/04/18 05:28:51;;;;;;;9.97;9.67;;;7.70;99.90;;;;;;5021892;28;20299;-79
2023/04/18 05:31:19;;;;;;;9.60;9.30;;;7.80;99.90;;;;;;5022442;28;20327;-79
2023/04/18 05:33:46;;;;;;;9.80;9.50;;;7.80;99.90;;;;;;5022558;28;20235;-79
2023/04/18 05:36:13;;;;;;;9.80;9.50;;;7.80;99.90;;;;;;5021620;28;20235;-79
2023/04/18 05:38:41;;;;;;;9.70;9.40;;;7.80;99.90;;;;;;5021162;28;20232;-79
2023/04/18 05:41:08;;;;;;;9.50;9.20;;;7.90;99.90;;;;;;5021961;28;20228;-80
2023/04/18 05:43:37;;;;;;;9.13;8.83;;;7.90;99.90;;;;;;5021900;28;20327;-79
2023/04/18 05:46:05;;;;;;;9.33;9.03;;;8.00;99.90;;;;;;5021786;28;20240;-79
2023/04/18 05:48:33;;;;;;;9.07;8.77;;;8.10;99.90;;;;;;5021118;28;20245;-79
2023/04/18 05:51:00;;;;;;;9.10;8.83;;;8.10;99.90;;;;;;5021798;28;20255;-79
2023/04/18 05:53:28;;;;;;;9.10;8.80;;;8.20;99.90;;;;;;5021297;28;20295;-79
2023/04/18 05:55:57;;;;;;;9.00;8.80;;;8.20;99.90;;;;;;5021355;28;20319;-80
2023/04/18 05:58:25;;;;;;;8.83;8.63;;;8.20;99.90;;;;;;5020020;28;20228;-79
2023/04/18 06:00:55;;;;;;;9.73;9.43;;;8.30;99.90;;;;;;5020891;28;20266;-79
2023/04/18 06:03:22;;;;;;;9.53;9.23;;;8.30;99.90;;;;;;5021478;28;20246;-79
2023/04/18 06:05:49;;;;;;;9.70;9.40;;;8.20;99.90;;;;;;5020705;28;20236;-79
2023/04/18 06:08:17;;;;;;;9.80;9.50;;;8.10;99.90;;;;;;5019931;28;20224;-79
2023/04/18 06:10:44;;;;;;;9.60;9.30;;;8.10;99.90;;;;;;5020527;28;20228;-79
2023/04/18 06:13:12;;;;;;;9.70;9.40;;;8.10;99.90;;;;;;5022087;28;20327;-79
2023/04/18 06:15:40;;;;;;;9.70;9.40;;;8.10;99.90;;;;;;5020829;28;20236;-79
2023/04/18 06:18:08;;;;;;;9.50;9.20;;;8.10;99.90;;;;;;5020663;28;20300;-79
2023/04/18 06:20:36;;;;;;;9.60;9.30;;;8.20;99.90;;;;;;5021149;28;20240;-80
2023/04/18 06:23:03;;;;;;;9.60;9.30;;;8.30;99.90;;;;;;5020763;28;20238;-80
2023/04/18 06:25:31;;;;;;;9.20;8.90;;;8.40;99.90;;;;;;5020704;28;20714;-80
2023/04/18 06:27:58;;;;;;;9.20;8.90;;;8.40;99.90;;;;;;5020226;28;20861;-80
2023/04/18 06:30:26;;;;;;;8.80;8.60;;;8.40;99.90;;;;;;5021116;28;20311;-80
2023/04/18 06:32:53;;;;;;;8.90;8.70;;;8.40;99.90;;;;;;5021133;28;20228;-80
2023/04/18 06:35:22;;;;;;;8.80;8.60;;;8.50;99.90;;;;;;5020267;28;20232;-80
2023/04/18 06:37:50;;;;;;;8.63;8.43;;;8.60;99.90;;;;;;5020078;28;20240;-80
2023/04/18 06:40:18;;;;;;;8.97;8.73;;;8.70;99.90;;;;;;5020396;28;20240;-80
2023/04/18 06:42:46;;;;;;;8.80;8.60;;;8.80;99.90;;;;;;5020990;28;20292;-80
2023/04/18 06:45:13;;;;;;;9.30;9.00;;;9.00;99.90;;;;;;5022944;28;20303;-80
2023/04/18 06:47:41;;;;;;;9.20;8.90;;;9.20;99.90;;;;;;5021976;28;20303;-80
2023/04/18 06:50:10;;;;;;;8.90;8.70;;;9.40;99.90;;;;;;5021672;28;20247;-80
2023/04/18 06:52:43;;;;;;;9.20;8.90;;;9.60;99.90;;;;;;5023810;28;20299;-80
2023/04/18 06:55:11;;;;;;;9.30;9.00;;;9.70;99.90;;;;;;5026384;28;20236;-80
2023/04/18 06:57:40;;;;;;;8.77;8.57;;;9.80;99.90;;;;;;5034982;28;20290;-79
2023/04/18 07:00:09;;;;;;;8.77;8.57;;;9.80;99.90;;;;;;5025825;28;20275;-79
2023/04/18 07:02:38;;;;;;;8.83;8.63;;;9.80;99.90;;;;;;5028404;28;20232;-80
2023/04/18 07:05:08;;;;;;;8.73;8.53;;;9.80;99.90;;;;;;5032021;28;20235;-80
2023/04/18 07:07:35;;;;;;;8.90;8.70;;;9.80;99.90;;;;;;5029520;28;20236;-80
2023/04/18 07:10:08;;;;;;;9.20;8.90;;;9.80;99.90;;;;;;5027625;28;20242;-80
2023/04/18 07:12:35;;;;;;;8.93;8.73;;;9.80;99.90;;;;;;5027116;28;20235;-80
2023/04/18 07:15:03;;;;;;;9.73;9.43;;;9.90;99.90;;;;;;5040125;28;20232;-80
2023/04/18 07:17:31;;;;;;;9.60;9.30;;;10.00;99.90;;;;;;5031232;28;20228;-80
2023/04/18 07:19:59;;;;;;;9.87;9.57;;;10.30;99.90;;;;;;5019144;28;20224;-80
2023/04/18 07:22:26;;;;;;;9.43;9.13;;;10.40;99.90;;;;;;5020845;28;20263;-80
2023/04/18 07:24:54;;;;;;;9.63;9.33;;;10.60;99.90;;;;;;5023613;28;20299;-80
2023/04/18 07:27:23;;;;;;;9.80;9.50;;;10.60;99.90;;;;;;5030862;28;20318;-80
2023/04/18 07:29:50;;;;;;;9.80;9.50;;;10.50;99.90;;;;;;5027459;28;20327;-80
2023/04/18 07:32:18;;;;;;;9.90;9.60;;;10.60;99.90;;;;;;5020853;28;20270;-80
2023/04/18 07:34:45;;;;;;;9.60;9.30;;;10.60;99.90;;;;;;5024288;28;20252;-80
2023/04/18 07:37:13;;;;;;;9.70;9.40;;;10.70;99.90;;;;;;5029869;28;20227;-80
2023/04/18 07:39:41;;;;;;;9.50;9.20;;;10.80;99.90;;;;;;5031241;28;20228;-80
2023/04/18 07:42:10;;;;;;;9.80;9.50;;;10.90;99.90;;;;;;5033303;28;20236;-80
2023/04/18 07:44:38;;;;;;;9.43;9.13;;;10.90;99.90;;;;;;5035594;28;20296;-80
2023/04/18 07:47:09;;;;;;;9.93;9.63;;;10.80;99.90;;;;;;5035413;28;20228;-80
2023/04/18 07:49:37;;;;;;;9.93;9.63;;;10.90;99.90;;;;;;5035235;28;20232;-80
2023/04/18 07:52:05;;;;;;;9.80;9.50;;;11.00;99.90;;;;;;5035604;28;20232;-79
2023/04/18 07:54:32;;;;;;;9.77;9.47;;;11.00;99.90;;;;;;5036651;28;20299;-80
2023/04/18 07:57:00;;;;;;;10.00;9.70;;;11.00;99.90;;;;;;5036920;28;20240;-80
2023/04/18 07:59:28;;;;;;;10.07;9.77;;;11.00;99.90;;;;;;5036105;28;20224;-80
2023/04/18 08:01:57;;;;;;;10.00;9.70;;;11.10;99.90;;;;;;5037620;28;20242;-80
2023/04/18 08:04:25;;;;;;;9.70;9.40;;;11.20;99.90;;;;;;5038024;28;20239;-80
2023/04/18 08:06:52;;;;;;;9.97;9.67;;;11.10;99.90;;;;;;5037613;28;20238;-80
2023/04/18 08:09:20;;;;;;;9.83;9.53;;;11.20;99.90;;;;;;5037345;28;20231;-80
2023/04/18 08:11:48;;;;;;;9.70;9.40;;;11.30;99.90;;;;;;5037410;28;20243;-80
2023/04/18 08:14:15;;;;;;;9.93;9.63;;;11.50;99.90;;;;;;5036640;28;20299;-80
2023/04/18 08:16:42;;;;;;;9.97;9.67;;;11.60;99.90;;;;;;5037310;28;20231;-80
2023/04/18 08:19:11;;;;;;;9.87;9.57;;;11.70;99.90;;;;;;5036518;28;20304;-80
2023/04/18 08:21:39;;;;;;;9.70;9.40;;;11.70;99.90;;;;;;5037116;28;20240;-80
2023/04/18 08:24:07;;;;;;;10.10;9.80;;;11.70;99.90;;;;;;5036575;28;20232;-80
2023/04/18 08:26:35;;;;;;;9.53;9.23;;;11.80;99.90;;;;;;5037559;28;20292;-80
2023/04/18 08:29:02;;;;;;;9.50;9.20;;;11.80;99.90;;;;;;5037393;28;20213;-80
2023/04/18 08:31:30;;;;;;;9.30;9.00;;;11.90;99.90;;;;;;5036119;28;20580;-80
2023/04/18 08:33:57;;;;;;;9.20;8.90;;;12.10;99.90;;;;;;5036662;28;20239;-80
2023/04/18 08:36:26;;;;;;;9.37;9.07;;;12.30;99.90;;;;;;5037046;28;20220;-80
2023/04/18 08:38:55;;;;;;;9.43;9.13;;;12.50;99.90;;;;;;5036881;28;20268;-81
2023/04/18 08:41:23;;;;;;;9.47;9.17;;;12.60;99.90;;;;;;5037435;28;20310;-80
2023/04/18 08:43:50;;;;;;;9.63;9.33;;;12.60;99.90;;;;;;5032385;28;20236;-78
2023/04/18 08:46:18;;;;;;;9.87;9.57;;;12.70;99.90;;;;;;5032151;28;20311;-81
2023/04/18 08:48:50;;;;;;;10.07;9.77;;;12.90;99.90;;;;;;5031942;28;20240;-79
2023/04/18 08:51:17;;;;;;;10.10;9.80;;;12.60;99.90;;;;;;5031501;28;20247;-79
2023/04/18 08:53:47;;;;;;;9.93;9.63;;;12.70;99.90;;;;;;5030405;28;20238;-80
2023/04/18 08:56:15;;;;;;;10.33;10.03;;;12.70;99.90;;;;;;5028649;28;20235;-79
2023/04/18 08:58:43;;;;;;;9.90;9.60;;;12.70;99.90;;;;;;5027030;28;20236;-79
2023/04/18 09:01:12;;;;;;;9.80;9.50;;;12.90;99.90;;;;;;5026860;28;20240;-79
2023/04/18 09:03:42;;;;;;;9.70;9.40;;;12.80;99.90;;;;;;5026031;28;20231;-80
2023/04/18 09:06:14;;;;;;;9.70;9.40;;;12.90;99.90;;;;;;5026184;28;20236;-79
2023/04/18 09:08:43;;;;;;;9.30;9.00;;;12.70;99.90;;;;;;5026347;28;20220;-79
2023/04/18 09:11:30;;;;;;;9.50;9.20;;;12.60;99.90;;;;;;5032388;28;20236;-79
2023/04/18 09:13:58;;;;;;;9.60;9.30;;;12.60;99.90;;;;;;5033606;28;20256;-79
2023/04/18 09:16:28;;;;;;;9.20;8.90;;;12.50;99.90;;;;;;5024890;28;20233;-79
2023/04/18 09:19:13;;;;;;;9.70;9.40;;;12.50;99.90;;;;;;5028092;28;20228;-80
2023/04/18 09:21:43;;;;;;;9.70;9.40;;;12.60;99.90;;;;;;5025872;28;20242;-79
2023/04/18 09:24:19;;;;;;;9.77;9.47;;;12.80;99.90;;;;;;5026308;28;20250;-80
2023/04/18 09:26:50;;;;;;;9.80;9.50;;;13.10;99.90;;;;;;5025866;28;20235;-79
2023/04/18 09:29:21;;;;;;;9.57;9.27;;;13.20;99.90;;;;;;5024278;28;20224;-80
2023/04/18 09:32:00;;;;;;;9.37;9.07;;;13.30;99.90;;;;;;5024398;28;20240;-80
2023/04/18 09:34:28;;;;;;;9.70;9.40;;;13.40;99.90;;;;;;5024577;28;20243;-79
2023/04/18 09:37:14;;;;;;;9.50;9.20;;;13.40;99.90;;;;;;5026866;28;20308;-79
2023/04/18 09:39:44;;;;;;;9.60;9.30;;;13.30;99.90;;;;;;5026217;28;20267;-80
2023/04/18 09:42:14;;;;;;;9.30;9.00;;;13.30;99.90;;;;;;5032386;28;20269;-80
2023/04/18 09:45:02;;;;;;;9.47;9.17;;;13.40;99.90;;;;;;5034711;28;20232;-80
2023/04/18 09:47:31;;;;;;;9.70;9.40;;;13.40;99.90;;;;;;5026206;28;20260;-80
2023/04/18 09:49:58;;;;;;;9.40;9.10;;;13.40;99.90;;;;;;5024050;28;20224;-80
2023/04/18 09:52:26;;;;;;;9.73;9.43;;;13.40;99.90;;;;;;5023435;28;20228;-80
2023/04/18 09:54:58;;;;;;;10.03;9.73;;;13.30;99.90;;;;;;5024280;28;20292;-79
2023/04/18 09:57:31;;;;;;;9.57;9.27;;;13.30;99.90;;;;;;5023836;28;20236;-79
2023/04/18 10:00:16;;;;;;;9.90;9.60;;;13.30;99.90;;;;;;5023145;28;20267;-79
2023/04/18 10:02:57;;;;;;;9.47;9.17;;;13.30;99.90;;;;;;5023275;28;20243;-79
2023/04/18 10:05:27;;;;;;;9.40;9.10;;;13.30;99.90;;;;;;5024152;28;20315;-80
2023/04/18 10:07:55;;;;;;;9.70;9.40;;;13.30;99.90;;;;;;5022555;28;20304;-79
2023/04/18 10:10:23;;;;;;;9.60;9.30;;;13.50;99.90;;;;;;5023486;28;20232;-80
2023/04/18 10:12:56;;;;;;;9.70;9.40;;;13.50;99.90;;;;;;5023265;28;20236;-81
2023/04/18 10:15:26;;;;;;;9.40;9.10;;;13.50;99.90;;;;;;5023937;28;20343;-80
2023/04/18 10:17:55;;;;;;;9.83;9.53;;;13.40;99.90;;;;;;5024008;28;20240;-80
2023/04/18 10:20:25;;;;;;;9.87;9.57;;;13.50;99.90;;;;;;5024350;28;20232;-80
2023/04/18 10:22:53;;;;;;;10.10;9.80;;;13.60;99.90;;;;;;5023651;28;20240;-80
2023/04/18 10:25:50;;;;;;;9.97;9.67;;;13.70;99.90;;;;;;5024575;28;20229;-80
2023/04/18 10:28:23;;;;;;;9.63;9.33;;;13.60;99.90;;;;;;5023620;28;20278;-80
2023/04/18 10:30:53;;;;;;;9.70;9.40;;;13.60;99.90;;;;;;5023592;28;20236;-80
2023/04/18 10:33:23;;;;;;;10.00;9.70;;;13.60;99.90;;;;;;5022937;28;20231;-80
2023/04/18 10:36:16;;;;;;;9.70;9.40;;;13.50;99.90;;;;;;5023266;28;20232;-79
2023/04/18 10:38:49;;;;;;;9.90;9.60;;;13.70;99.90;;;;;;5022646;28;20243;-80
2023/04/18 10:41:25;;;;;;;10.20;9.90;;;13.80;99.90;;;;;;5022906;28;20224;-80
2023/04/18 10:44:21;;;;;;;10.13;9.83;;;13.90;99.90;;;;;;5023322;28;20318;-80
2023/04/18 10:47:31;;;;;;;9.73;9.43;;;14.00;99.90;;;;;;5022610;28;20228;-80
2023/04/18 10:50:02;;;;;;;9.67;9.37;;;14.00;99.90;;;;;;5021593;28;20243;-80
2023/04/18 10:52:31;;;;;;;9.70;9.40;;;14.00;99.90;;;;;;5022030;28;20221;-80
2023/04/18 10:55:24;;;;;;;9.90;9.60;;;14.10;99.90;;;;;;5022022;28;20259;-80
2023/04/18 10:57:54;;;;;;;9.73;9.43;;;13.90;99.90;;;;;;5021705;28;20267;-80
2023/04/18 11:00:23;;;;;;;9.63;9.33;;;13.80;99.90;;;;;;5021705;28;20235;-80
2023/04/18 11:02:54;;;;;;;9.90;9.60;;;13.80;99.90;;;;;;5022068;28;20504;-80
2023/04/18 11:05:24;;;;;;;9.80;9.50;;;13.90;99.90;;;;;;5024084;28;20233;-80
2023/04/18 11:07:52;;;;;;;9.80;9.50;;;14.10;99.90;;;;;;5023061;28;20238;-80
2023/04/18 11:10:21;;;;;;;9.83;9.53;;;14.20;99.90;;;;;;5022703;28;20323;-80
2023/04/18 11:12:49;;;;;;;9.67;9.37;;;14.10;99.90;;;;;;5022573;28;20232;-80
2023/04/18 11:15:20;;;;;;;9.80;9.50;;;14.10;99.90;;;;;;5022532;28;20291;-80
2023/04/18 11:17:57;;;;;;;9.97;9.67;;;13.90;99.90;;;;;;5022305;28;20232;-80
2023/04/18 11:20:25;;;;;;;9.67;9.37;;;13.70;99.90;;;;;;5022802;28;20232;-80
2023/04/18 11:22:54;;;;;;;9.80;9.50;;;13.50;99.90;;;;;;5021970;28;20315;-79
2023/04/18 11:25:27;;;;;;;9.70;9.40;;;13.50;99.90;;;;;;5022957;28;20242;-80
2023/04/18 11:27:55;;;;;;;9.33;9.03;;;13.40;99.90;;;;;;5025067;28;20233;-80
2023/04/18 11:30:23;;;;;;;9.60;9.30;;;13.30;99.90;;;;;;5025710;28;20251;-80
2023/04/18 11:32:52;;;;;;;9.43;9.13;;;13.20;99.90;;;;;;5028891;28;20250;-79
2023/04/18 11:35:20;;;;;;;9.80;9.50;;;13.10;99.90;;;;;;5035379;28;20220;-79
2023/04/18 11:37:49;;;;;;;9.57;9.27;;;13.10;99.90;;;;;;5035217;28;20260;-79
2023/04/18 11:40:16;;;;;;;9.50;9.20;;;13.10;99.90;;;;;;5026448;28;20232;-80
2023/04/18 11:42:44;;;;;;;9.73;9.43;;;13.30;99.90;;;;;;5026357;28;20233;-80
2023/04/18 11:45:13;;;;;;;9.77;9.47;;;13.40;99.90;;;;;;5028228;28;20239;-80
2023/04/18 11:47:42;;;;;;;9.80;9.50;;;13.40;99.90;;;;;;5031843;28;20232;-79
2023/04/18 11:50:13;;;;;;;9.80;9.50;;;13.50;99.90;;;;;;5029249;28;20295;-79
2023/04/18 11:52:42;;;;;;;9.80;9.50;;;13.70;99.90;;;;;;5034552;28;20220;-79
2023/04/18 11:55:16;;;;;;;9.60;9.30;;;13.80;99.90;;;;;;5036232;28;20232;-79
2023/04/18 11:57:50;;;;;;;9.73;9.43;;;14.00;99.90;;;;;;5036638;28;20236;-79
2023/04/18 12:00:31;;;;;;;9.70;9.40;;;14.00;99.90;;;;;;5036575;28;20231;-79
2023/04/18 12:03:03;;;;;;;9.50;9.20;;;13.90;99.90;;;;;;5038482;28;20242;-80
2023/04/18 12:05:33;;;;;;;9.63;9.33;;;13.80;99.90;;;;;;5039255;28;20236;-79
2023/04/18 12:08:08;;;;;;;9.77;9.47;;;13.90;99.90;;;;;;5037949;28;20236;-80
2023/04/18 12:10:36;;;;;;;8.80;8.60;;;13.70;99.90;;;;;;5036500;28;20227;-79
2023/04/18 12:13:10;;;;;;;9.20;8.90;;;13.70;99.90;;;;;;5037999;28;20280;-80
2023/04/18 12:15:40;;;;;;;9.30;9.00;;;13.60;99.90;;;;;;5038299;28;20240;-79
2023/04/18 12:18:09;;;;;;;9.30;9.00;;;13.60;99.90;;;;;;5037614;28;20250;-79
2023/04/18 12:20:44;;;;;;;9.60;9.30;;;13.60;99.90;;;;;;5037376;28;20243;-79
2023/04/18 12:23:29;;;;;;;9.43;9.13;;;13.60;99.90;;;;;;5036623;28;20204;-79
2023/04/18 12:26:02;;;;;;;9.60;9.30;;;13.70;99.90;;;;;;5036092;28;20339;-80
2023/04/18 12:28:34;;;;;;;9.87;9.57;;;13.70;99.90;;;;;;5038930;28;20240;-79
2023/04/18 12:31:01;;;;;;;9.93;9.63;;;13.70;99.90;;;;;;5039598;28;20240;-79
2023/04/18 12:33:30;;;;;;;9.60;9.30;;;13.80;99.90;;;;;;5038993;28;20288;-79
2023/04/18 12:36:00;;;;;;;9.47;9.17;;;14.00;99.90;;;;;;5038813;28;20292;-79
2023/04/18 12:38:28;;;;;;;9.87;9.57;;;14.20;99.90;;;;;;5038415;28;20227;-79
2023/04/18 12:40:59;;;;;;;9.40;9.10;;;14.30;99.90;;;;;;5038731;28;20236;-79
2023/04/18 12:43:26;;;;;;;9.80;9.50;;;14.30;99.90;;;;;;5033508;28;20228;-80
2023/04/18 12:45:54;;;;;;;9.70;9.40;;;14.20;99.90;;;;;;5032221;28;20252;-79
2023/04/18 12:48:21;;;;;;;9.73;9.43;;;14.00;99.90;;;;;;5030914;28;20303;-80
2023/04/18 12:50:50;;;;;;;9.53;9.23;;;13.90;99.90;;;;;;5029170;28;20274;-80
2023/04/18 12:53:22;;;;;;;9.70;9.40;;;13.70;99.90;;;;;;5025754;28;20238;-80
2023/04/18 12:55:49;;;;;;;9.47;9.17;;;13.70;99.90;;;;;;5034812;28;20239;-80
2023/04/18 12:58:19;;;;;;;9.40;9.10;;;13.70;99.90;;;;;;5032817;28;20259;-80
2023/04/18 13:00:47;;;;;;;9.70;9.40;;;13.70;99.90;;;;;;5026768;28;20244;-80
2023/04/18 13:03:17;;;;;;;9.83;9.53;;;13.60;99.90;;;;;;5037363;28;20240;-79